sensor_id;sensor_type;location;lat;lon;timestamp;pressure;altitude;pressure_sealevel;temperature;humidity
14343;BME280;7255;53.596;9.960;2023-08-21T00:00:11;102049.56;;;17.62;nan
14343;BME280;7255;53.596;9.960;2023-08-21T00:02:38;102042.44;;;17.61;nan
14343;BME280;7255;53.596;9.960;2023-08-21T00:05:04;102035.84;;;17.57;nan
14343;BME280;7255;53.596;9.960;2023-08-21T00:07:31;102040.13;;;17.53;nan
14343;BME280;7255;53.596;9.960;2023-08-21T00:09:58;102035.84;;;17.45;nan
14343;BME280;7255;53.596;9.960;2023-08-21T00:12:24;102035.28;;;17.43;nan
14343;BME280;7255;53.596;9.960;2023-08-21T00:14:52;102029.50;;;17.40;nan
14343;BME280;7255;53.596;9.960;2023-08-21T00:17:18;102036.25;;;17.37;nan
14343;BME280;7255;53.596;9.960;2023-08-21T00:19:44;102049.25;;;17.35;nan
14343;BME280;7255;53.596;9.960;2023-08-21T00:22:10;102047.22;;;17.30;nan
14343;BME280;7255;53.596;9.960;2023-08-21T00:24:37;102037.66;;;17.28;nan
14343;BME280;7255;53.596;9.960;2023-08-21T00:27:03;102037.31;;;17.24;nan
14343;BME280;7255;53.596;9.960;2023-08-21T00:29:29;102046.06;;;17.26;nan
14343;BME280;7255;53.596;9.960;2023-08-21T00:31:57;102041.09;;;17.23;nan
14343;BME280;7255;53.596;9.960;2023-08-21T00:34:23;102051.84;;;17.18;nan
14343;BME280;7255;53.596;9.960;2023-08-21T00:36:49;102038.75;;;17.15;nan
14343;BME280;7255;53.596;9.960;2023-08-21T00:39:16;102048.78;;;17.15;nan
14343;BME280;7255;53.596;9.960;2023-08-21T00:41:42;102045.59;;;17.06;nan
14343;BME280;7255;53.596;9.960;2023-08-21T00:44:08;102044.16;;;17.03;nan
14343;BME280;7255;53.596;9.960;2023-08-21T00:46:35;102039.00;;;17.02;nan
14343;BME280;7255;53.596;9.960;2023-08-21T00:49:02;102051.72;;;17.01;nan
14343;BME280;7255;53.596;9.960;2023-08-21T00:51:29;102053.63;;;17.01;nan
14343;BME280;7255;53.596;9.960;2023-08-21T00:53:55;102050.91;;;17.01;nan
14343;BME280;7255;53.596;9.960;2023-08-21T00:56:22;102047.00;;;16.97;nan
14343;BME280;7255;53.596;9.960;2023-08-21T00:58:48;102055.03;;;16.91;nan
14343;BME280;7255;53.596;9.960;2023-08-21T01:01:15;102050.78;;;16.96;nan
14343;BME280;7255;53.596;9.960;2023-08-21T01:03:43;102054.22;;;16.91;nan
14343;BME280;7255;53.596;9.960;2023-08-21T01:06:11;102041.81;;;16.83;nan
14343;BME280;7255;53.596;9.960;2023-08-21T01:08:42;102048.06;;;16.84;nan
14343;BME280;7255;53.596;9.960;2023-08-21T01:11:14;102042.25;;;16.80;nan
14343;BME280;7255;53.596;9.960;2023-08-21T01:13:48;102043.53;;;16.78;nan
14343;BME280;7255;53.596;9.960;2023-08-21T01:16:19;102056.03;;;16.79;nan
14343;BME280;7255;53.596;9.960;2023-08-21T01:18:47;102041.88;;;16.77;nan
14343;BME280;7255;53.596;9.960;2023-08-21T01:21:16;102050.72;;;16.72;nan
14343;BME280;7255;53.596;9.960;2023-08-21T01:23:43;102058.16;;;16.77;nan
14343;BME280;7255;53.596;9.960;2023-08-21T01:26:09;102049.06;;;16.71;nan
14343;BME280;7255;53.596;9.960;2023-08-21T01:28:36;102055.78;;;16.68;nan
14343;BME280;7255;53.596;9.960;2023-08-21T01:31:07;102054.59;;;16.64;nan
14343;BME280;7255;53.596;9.960;2023-08-21T01:33:45;102058.41;;;16.63;nan
14343;BME280;7255;53.596;9.960;2023-08-21T01:36:12;102055.41;;;16.65;nan
14343;BME280;7255;53.596;9.960;2023-08-21T01:38:40;102050.94;;;16.59;nan
14343;BME280;7255;53.596;9.960;2023-08-21T01:41:08;102053.78;;;16.64;nan
14343;BME280;7255;53.596;9.960;2023-08-21T01:43:34;102053.19;;;16.62;nan
14343;BME280;7255;53.596;9.960;2023-08-21T01:46:01;102054.00;;;16.62;nan
14343;BME280;7255;53.596;9.960;2023-08-21T01:48:27;102058.03;;;16.60;nan
14343;BME280;7255;53.596;9.960;2023-08-21T01:50:53;102058.47;;;16.57;nan
14343;BME280;7255;53.596;9.960;2023-08-21T01:53:20;102050.56;;;16.55;nan
14343;BME280;7255;53.596;9.960;2023-08-21T01:55:46;102060.59;;;16.54;nan
14343;BME280;7255;53.596;9.960;2023-08-21T01:58:14;102064.37;;;16.53;nan
14343;BME280;7255;53.596;9.960;2023-08-21T02:00:40;102054.00;;;16.50;nan
14343;BME280;7255;53.596;9.960;2023-08-21T02:03:06;102054.44;;;16.47;nan
14343;BME280;7255;53.596;9.960;2023-08-21T02:05:37;102056.72;;;16.50;nan
14343;BME280;7255;53.596;9.960;2023-08-21T02:08:04;102056.09;;;16.48;nan
14343;BME280;7255;53.596;9.960;2023-08-21T02:10:30;102055.28;;;16.48;nan
14343;BME280;7255;53.596;9.960;2023-08-21T02:12:56;102055.72;;;16.45;nan
14343;BME280;7255;53.596;9.960;2023-08-21T02:15:24;102051.59;;;16.42;nan
14343;BME280;7255;53.596;9.960;2023-08-21T02:17:50;102047.84;;;16.43;nan
14343;BME280;7255;53.596;9.960;2023-08-21T02:20:17;102055.84;;;16.38;nan
14343;BME280;7255;53.596;9.960;2023-08-21T02:22:43;102054.66;;;16.34;nan
14343;BME280;7255;53.596;9.960;2023-08-21T02:25:09;102061.72;;;16.35;nan
14343;BME280;7255;53.596;9.960;2023-08-21T02:27:36;102061.50;;;16.36;nan
14343;BME280;7255;53.596;9.960;2023-08-21T02:30:03;102056.75;;;16.32;nan
14343;BME280;7255;53.596;9.960;2023-08-21T02:32:30;102065.97;;;16.31;nan
14343;BME280;7255;53.596;9.960;2023-08-21T02:34:56;102056.28;;;16.35;nan
14343;BME280;7255;53.596;9.960;2023-08-21T02:37:23;102067.16;;;16.35;nan
14343;BME280;7255;53.596;9.960;2023-08-21T02:39:49;102058.88;;;16.30;nan
14343;BME280;7255;53.596;9.960;2023-08-21T02:42:15;102066.41;;;16.28;nan
14343;BME280;7255;53.596;9.960;2023-08-21T02:44:41;102068.06;;;16.29;nan
14343;BME280;7255;53.596;9.960;2023-08-21T02:47:08;102067.25;;;16.28;nan
14343;BME280;7255;53.596;9.960;2023-08-21T02:49:36;102062.66;;;16.29;nan
14343;BME280;7255;53.596;9.960;2023-08-21T02:52:02;102069.50;;;16.31;nan
14343;BME280;7255;53.596;9.960;2023-08-21T02:54:29;102063.47;;;16.29;nan
14343;BME280;7255;53.596;9.960;2023-08-21T02:56:55;102073.03;;;16.32;nan
14343;BME280;7255;53.596;9.960;2023-08-21T02:59:21;102066.69;;;16.38;nan
14343;BME280;7255;53.596;9.960;2023-08-21T03:01:47;102072.12;;;16.38;nan
14343;BME280;7255;53.596;9.960;2023-08-21T03:04:14;102082.50;;;16.41;nan
14343;BME280;7255;53.596;9.960;2023-08-21T03:06:41;102077.34;;;16.51;nan
14343;BME280;7255;53.596;9.960;2023-08-21T03:09:08;102084.44;;;16.52;nan
14343;BME280;7255;53.596;9.960;2023-08-21T03:11:34;102083.03;;;16.62;nan
14343;BME280;7255;53.596;9.960;2023-08-21T03:14:00;102074.53;;;16.70;nan
14343;BME280;7255;53.596;9.960;2023-08-21T03:16:27;102084.50;;;16.76;nan
14343;BME280;7255;53.596;9.960;2023-08-21T03:18:54;102071.03;;;16.81;nan
14343;BME280;7255;53.596;9.960;2023-08-21T03:21:21;102075.72;;;16.74;nan
14343;BME280;7255;53.596;9.960;2023-08-21T03:23:51;102079.06;;;16.76;nan
14343;BME280;7255;53.596;9.960;2023-08-21T03:26:17;102077.41;;;16.75;nan
14343;BME280;7255;53.596;9.960;2023-08-21T03:28:43;102076.94;;;16.78;nan
14343;BME280;7255;53.596;9.960;2023-08-21T03:31:10;102076.94;;;16.78;nan
14343;BME280;7255;53.596;9.960;2023-08-21T03:33:36;102077.84;;;16.72;nan
14343;BME280;7255;53.596;9.960;2023-08-21T03:36:03;102077.41;;;16.75;nan
14343;BME280;7255;53.596;9.960;2023-08-21T03:38:29;102077.63;;;16.73;nan
14343;BME280;7255;53.596;9.960;2023-08-21T03:40:57;102079.88;;;16.77;nan
14343;BME280;7255;53.596;9.960;2023-08-21T03:43:23;102075.72;;;16.74;nan
14343;BME280;7255;53.596;9.960;2023-08-21T03:45:49;102077.03;;;16.71;nan
14343;BME280;7255;53.596;9.960;2023-08-21T03:48:15;102076.22;;;16.71;nan
14343;BME280;7255;53.596;9.960;2023-08-21T03:50:42;102084.22;;;16.66;nan
14343;BME280;7255;53.596;9.960;2023-08-21T03:53:08;102077.50;;;16.68;nan
14343;BME280;7255;53.596;9.960;2023-08-21T03:55:34;102083.28;;;16.72;nan
14343;BME280;7255;53.596;9.960;2023-08-21T03:58:02;102078.13;;;16.82;nan
14343;BME280;7255;53.596;9.960;2023-08-21T04:00:29;102084.75;;;16.86;nan
14343;BME280;7255;53.596;9.960;2023-08-21T04:02:56;102068.47;;;16.86;nan
14343;BME280;7255;53.596;9.960;2023-08-21T04:05:22;102076.44;;;16.81;nan
14343;BME280;7255;53.596;9.960;2023-08-21T04:07:48;102075.28;;;16.77;nan
14343;BME280;7255;53.596;9.960;2023-08-21T04:10:17;102075.84;;;16.67;nan
14343;BME280;7255;53.596;9.960;2023-08-21T04:12:43;102075.50;;;16.64;nan
14343;BME280;7255;53.596;9.960;2023-08-21T04:15:11;102078.88;;;16.59;nan
14343;BME280;7255;53.596;9.960;2023-08-21T04:17:37;102080.19;;;16.57;nan
14343;BME280;7255;53.596;9.960;2023-08-21T04:20:04;102083.50;;;16.59;nan
14343;BME280;7255;53.596;9.960;2023-08-21T04:22:31;102076.44;;;16.58;nan
14343;BME280;7255;53.596;9.960;2023-08-21T04:24:57;102079.38;;;16.56;nan
14343;BME280;7255;53.596;9.960;2023-08-21T04:27:31;102082.69;;;16.58;nan
14343;BME280;7255;53.596;9.960;2023-08-21T04:29:58;102081.84;;;16.58;nan
14343;BME280;7255;53.596;9.960;2023-08-21T04:32:25;102089.38;;;16.55;nan
14343;BME280;7255;53.596;9.960;2023-08-21T04:34:52;102086.44;;;16.57;nan
14343;BME280;7255;53.596;9.960;2023-08-21T04:37:18;102092.72;;;16.58;nan
14343;BME280;7255;53.596;9.960;2023-08-21T04:39:44;102087.53;;;16.68;nan
14343;BME280;7255;53.596;9.960;2023-08-21T04:42:11;102089.19;;;16.69;nan
14343;BME280;7255;53.596;9.960;2023-08-21T04:44:37;102090.47;;;16.66;nan
14343;BME280;7255;53.596;9.960;2023-08-21T04:47:19;102095.44;;;16.69;nan
14343;BME280;7255;53.596;9.960;2023-08-21T04:49:47;102094.13;;;16.72;nan
14343;BME280;7255;53.596;9.960;2023-08-21T04:52:13;102091.19;;;16.73;nan
14343;BME280;7255;53.596;9.960;2023-08-21T04:54:40;102100.69;;;16.83;nan
14343;BME280;7255;53.596;9.960;2023-08-21T04:57:06;102098.09;;;16.88;nan
14343;BME280;7255;53.596;9.960;2023-08-21T04:59:32;102098.00;;;16.95;nan
14343;BME280;7255;53.596;9.960;2023-08-21T05:01:59;102099.19;;;16.99;nan
14343;BME280;7255;53.596;9.960;2023-08-21T05:04:25;102095.88;;;16.97;nan
14343;BME280;7255;53.596;9.960;2023-08-21T05:06:53;102097.50;;;16.98;nan
14343;BME280;7255;53.596;9.960;2023-08-21T05:09:19;102096.59;;;17.04;nan
14343;BME280;7255;53.596;9.960;2023-08-21T05:11:46;102100.63;;;17.13;nan
14343;BME280;7255;53.596;9.960;2023-08-21T05:14:12;102105.69;;;17.09;nan
14343;BME280;7255;53.596;9.960;2023-08-21T05:16:38;102100.13;;;17.16;nan
14343;BME280;7255;53.596;9.960;2023-08-21T05:19:04;102097.53;;;17.21;nan
14343;BME280;7255;53.596;9.960;2023-08-21T05:21:31;102095.41;;;17.23;nan
14343;BME280;7255;53.596;9.960;2023-08-21T05:23:58;102099.91;;;17.29;nan
14343;BME280;7255;53.596;9.960;2023-08-21T05:26:25;102103.78;;;17.34;nan
14343;BME280;7255;53.596;9.960;2023-08-21T05:28:51;102089.16;;;17.46;nan
14343;BME280;7255;53.596;9.960;2023-08-21T05:31:18;102099.56;;;17.49;nan
14343;BME280;7255;53.596;9.960;2023-08-21T05:33:44;102097.41;;;17.51;nan
14343;BME280;7255;53.596;9.960;2023-08-21T05:36:10;102100.38;;;17.50;nan
14343;BME280;7255;53.596;9.960;2023-08-21T05:38:36;102090.66;;;17.54;nan
14343;BME280;7255;53.596;9.960;2023-08-21T05:41:04;102104.03;;;17.56;nan
14343;BME280;7255;53.596;9.960;2023-08-21T05:43:31;102103.91;;;17.62;nan
14343;BME280;7255;53.596;9.960;2023-08-21T05:45:57;102111.31;;;17.67;nan
14343;BME280;7255;53.596;9.960;2023-08-21T05:48:24;102103.41;;;17.65;nan
14343;BME280;7255;53.596;9.960;2023-08-21T05:50:52;102105.78;;;17.74;nan
14343;BME280;7255;53.596;9.960;2023-08-21T05:53:19;102103.75;;;17.81;nan
14343;BME280;7255;53.596;9.960;2023-08-21T05:55:45;102110.25;;;17.80;nan
14343;BME280;7255;53.596;9.960;2023-08-21T05:58:13;102101.84;;;17.93;nan
14343;BME280;7255;53.596;9.960;2023-08-21T06:00:39;102105.41;;;17.94;nan
14343;BME280;7255;53.596;9.960;2023-08-21T06:03:06;102109.53;;;17.96;nan
14343;BME280;7255;53.596;9.960;2023-08-21T06:05:32;102111.37;;;18.07;nan
14343;BME280;7255;53.596;9.960;2023-08-21T06:07:58;102114.53;;;18.16;nan
14343;BME280;7255;53.596;9.960;2023-08-21T06:10:25;102112.56;;;18.12;nan
14343;BME280;7255;53.596;9.960;2023-08-21T06:12:51;102119.62;;;18.13;nan
14343;BME280;7255;53.596;9.960;2023-08-21T06:15:19;102125.28;;;18.23;nan
14343;BME280;7255;53.596;9.960;2023-08-21T06:17:45;102117.25;;;18.28;nan
14343;BME280;7255;53.596;9.960;2023-08-21T06:20:11;102115.91;;;18.31;nan
14343;BME280;7255;53.596;9.960;2023-08-21T06:22:39;102120.38;;;18.37;nan
14343;BME280;7255;53.596;9.960;2023-08-21T06:25:07;102127.63;;;18.31;nan
14343;BME280;7255;53.596;9.960;2023-08-21T06:27:34;102134.75;;;18.49;nan
14343;BME280;7255;53.596;9.960;2023-08-21T06:30:00;102126.50;;;18.44;nan
14343;BME280;7255;53.596;9.960;2023-08-21T06:32:28;102139.38;;;18.49;nan
14343;BME280;7255;53.596;9.960;2023-08-21T06:34:54;102137.09;;;18.57;nan
14343;BME280;7255;53.596;9.960;2023-08-21T06:37:20;102135.63;;;18.66;nan
14343;BME280;7255;53.596;9.960;2023-08-21T06:39:47;102136.78;;;18.71;nan
14343;BME280;7255;53.596;9.960;2023-08-21T06:42:13;102139.47;;;18.82;nan
14343;BME280;7255;53.596;9.960;2023-08-21T06:44:39;102136.00;;;18.87;nan
14343;BME280;7255;53.596;9.960;2023-08-21T06:47:06;102136.50;;;19.01;nan
14343;BME280;7255;53.596;9.960;2023-08-21T06:49:33;102134.34;;;19.03;nan
14343;BME280;7255;53.596;9.960;2023-08-21T06:51:59;102139.31;;;19.06;nan
14343;BME280;7255;53.596;9.960;2023-08-21T06:54:26;102141.97;;;19.18;nan
14343;BME280;7255;53.596;9.960;2023-08-21T06:56:52;102143.94;;;19.22;nan
14343;BME280;7255;53.596;9.960;2023-08-21T06:59:19;102142.63;;;19.08;nan
14343;BME280;7255;53.596;9.960;2023-08-21T07:01:45;102150.72;;;19.20;nan
14343;BME280;7255;53.596;9.960;2023-08-21T07:04:11;102151.87;;;19.24;nan
14343;BME280;7255;53.596;9.960;2023-08-21T07:06:40;102148.06;;;19.25;nan
14343;BME280;7255;53.596;9.960;2023-08-21T07:09:06;102150.53;;;19.27;nan
14343;BME280;7255;53.596;9.960;2023-08-21T07:11:33;102146.59;;;19.34;nan
14343;BME280;7255;53.596;9.960;2023-08-21T07:13:59;102157.28;;;19.41;nan
14343;BME280;7255;53.596;9.960;2023-08-21T07:16:25;102155.72;;;19.45;nan
14343;BME280;7255;53.596;9.960;2023-08-21T07:18:52;102156.31;;;19.47;nan
14343;BME280;7255;53.596;9.960;2023-08-21T07:21:18;102159.59;;;19.49;nan
14343;BME280;7255;53.596;9.960;2023-08-21T07:23:46;102154.16;;;19.49;nan
14343;BME280;7255;53.596;9.960;2023-08-21T07:26:13;102147.53;;;19.62;nan
14343;BME280;7255;53.596;9.960;2023-08-21T07:28:39;102150.16;;;19.74;nan
14343;BME280;7255;53.596;9.960;2023-08-21T07:31:05;102145.69;;;19.68;nan
14343;BME280;7255;53.596;9.960;2023-08-21T07:33:31;102149.81;;;19.70;nan
14343;BME280;7255;53.596;9.960;2023-08-21T07:35:59;102151.63;;;19.81;nan
14343;BME280;7255;53.596;9.960;2023-08-21T07:38:26;102157.72;;;19.89;nan
14343;BME280;7255;53.596;9.960;2023-08-21T07:41:03;102159.69;;;19.93;nan
14343;BME280;7255;53.596;9.960;2023-08-21T07:43:30;102159.69;;;19.93;nan
14343;BME280;7255;53.596;9.960;2023-08-21T07:45:56;102152.47;;;20.04;nan
14343;BME280;7255;53.596;9.960;2023-08-21T07:48:22;102163.41;;;20.09;nan
14343;BME280;7255;53.596;9.960;2023-08-21T07:50:51;102162.44;;;20.15;nan
14343;BME280;7255;53.596;9.960;2023-08-21T07:53:17;102162.44;;;20.15;nan
14343;BME280;7255;53.596;9.960;2023-08-21T07:55:44;102160.19;;;20.34;nan
14343;BME280;7255;53.596;9.960;2023-08-21T07:58:12;102157.81;;;20.43;nan
14343;BME280;7255;53.596;9.960;2023-08-21T08:00:38;102159.81;;;20.48;nan
14343;BME280;7255;53.596;9.960;2023-08-21T08:03:05;102161.25;;;20.55;nan
14343;BME280;7255;53.596;9.960;2023-08-21T08:05:31;102159.06;;;20.57;nan
14343;BME280;7255;53.596;9.960;2023-08-21T08:07:59;102160.38;;;20.55;nan
14343;BME280;7255;53.596;9.960;2023-08-21T08:10:25;102155.16;;;20.48;nan
14343;BME280;7255;53.596;9.960;2023-08-21T08:12:51;102156.47;;;20.46;nan
14343;BME280;7255;53.596;9.960;2023-08-21T08:15:20;102157.09;;;20.53;nan
14343;BME280;7255;53.596;9.960;2023-08-21T08:17:46;102158.06;;;20.64;nan
14343;BME280;7255;53.596;9.960;2023-08-21T08:20:17;102160.53;;;20.65;nan
14343;BME280;7255;53.596;9.960;2023-08-21T08:22:43;102159.41;;;20.61;nan
14343;BME280;7255;53.596;9.960;2023-08-21T08:25:10;102156.59;;;20.56;nan
14343;BME280;7255;53.596;9.960;2023-08-21T08:27:36;102161.66;;;20.69;nan
14343;BME280;7255;53.596;9.960;2023-08-21T08:30:03;102158.25;;;20.84;nan
14343;BME280;7255;53.596;9.960;2023-08-21T08:32:31;102159.47;;;20.99;nan
14343;BME280;7255;53.596;9.960;2023-08-21T08:34:57;102158.97;;;21.02;nan
14343;BME280;7255;53.596;9.960;2023-08-21T08:37:24;102159.47;;;20.99;nan
14343;BME280;7255;53.596;9.960;2023-08-21T08:39:50;102161.12;;;21.00;nan
14343;BME280;7255;53.596;9.960;2023-08-21T08:42:17;102166.34;;;21.06;nan
14343;BME280;7255;53.596;9.960;2023-08-21T08:44:43;102168.66;;;20.87;nan
14343;BME280;7255;53.596;9.960;2023-08-21T08:47:11;102166.59;;;21.00;nan
14343;BME280;7255;53.596;9.960;2023-08-21T08:49:38;102176.16;;;21.02;nan
14343;BME280;7255;53.596;9.960;2023-08-21T08:52:05;102169.97;;;21.12;nan
14343;BME280;7255;53.596;9.960;2023-08-21T08:54:32;102167.50;;;21.10;nan
14343;BME280;7255;53.596;9.960;2023-08-21T08:57:00;102164.22;;;21.08;nan
14343;BME280;7255;53.596;9.960;2023-08-21T08:59:29;102167.28;;;21.17;nan
14343;BME280;7255;53.596;9.960;2023-08-21T09:01:56;102170.03;;;21.22;nan
14343;BME280;7255;53.596;9.960;2023-08-21T09:04:22;102164.66;;;21.32;nan
14343;BME280;7255;53.596;9.960;2023-08-21T09:06:50;102169.88;;;21.39;nan
14343;BME280;7255;53.596;9.960;2023-08-21T09:09:16;102175.66;;;21.43;nan
14343;BME280;7255;53.596;9.960;2023-08-21T09:11:43;102180.81;;;21.39;nan
14343;BME280;7255;53.596;9.960;2023-08-21T09:14:11;102163.31;;;21.35;nan
14343;BME280;7255;53.596;9.960;2023-08-21T09:16:56;102174.75;;;21.32;nan
14343;BME280;7255;53.596;9.960;2023-08-21T09:19:23;102177.66;;;21.47;nan
14343;BME280;7255;53.596;9.960;2023-08-21T09:21:50;102173.38;;;21.62;nan
14343;BME280;7255;53.596;9.960;2023-08-21T09:24:17;102177.78;;;21.68;nan
14343;BME280;7255;53.596;9.960;2023-08-21T09:26:43;102181.28;;;21.58;nan
14343;BME280;7255;53.596;9.960;2023-08-21T09:29:10;102169.81;;;21.66;nan
14343;BME280;7255;53.596;9.960;2023-08-21T09:31:36;102176.66;;;21.64;nan
14343;BME280;7255;53.596;9.960;2023-08-21T09:34:04;102171.53;;;21.78;nan
14343;BME280;7255;53.596;9.960;2023-08-21T09:36:31;102171.28;;;21.84;nan
14343;BME280;7255;53.596;9.960;2023-08-21T09:38:59;102169.37;;;21.80;nan
14343;BME280;7255;53.596;9.960;2023-08-21T09:41:26;102168.78;;;21.72;nan
14343;BME280;7255;53.596;9.960;2023-08-21T09:43:53;102170.72;;;21.77;nan
14343;BME280;7255;53.596;9.960;2023-08-21T09:46:25;102166.91;;;21.78;nan
14343;BME280;7255;53.596;9.960;2023-08-21T09:48:52;102164.75;;;21.90;nan
14343;BME280;7255;53.596;9.960;2023-08-21T09:51:19;102166.47;;;22.02;nan
14343;BME280;7255;53.596;9.960;2023-08-21T09:53:47;102170.47;;;21.84;nan
14343;BME280;7255;53.596;9.960;2023-08-21T09:56:17;102156.84;;;21.89;nan
14343;BME280;7255;53.596;9.960;2023-08-21T09:58:44;102164.22;;;21.94;nan
14343;BME280;7255;53.596;9.960;2023-08-21T10:01:13;102164.88;;;22.21;nan
14343;BME280;7255;53.596;9.960;2023-08-21T10:03:42;102158.87;;;22.24;nan
14343;BME280;7255;53.596;9.960;2023-08-21T10:06:15;102168.97;;;22.14;nan
14343;BME280;7255;53.596;9.960;2023-08-21T10:08:44;102150.06;;;22.12;nan
14343;BME280;7255;53.596;9.960;2023-08-21T10:11:12;102158.81;;;22.14;nan
14343;BME280;7255;53.596;9.960;2023-08-21T10:13:40;102154.28;;;22.45;nan
14343;BME280;7255;53.596;9.960;2023-08-21T10:16:07;102148.03;;;22.65;nan
14343;BME280;7255;53.596;9.960;2023-08-21T10:18:36;102159.81;;;22.76;nan
14343;BME280;7255;53.596;9.960;2023-08-21T10:21:11;102162.53;;;22.71;nan
14343;BME280;7255;53.596;9.960;2023-08-21T10:23:38;102162.00;;;22.54;nan
14343;BME280;7255;53.596;9.960;2023-08-21T10:26:06;102154.31;;;22.56;nan
14343;BME280;7255;53.596;9.960;2023-08-21T10:28:50;102166.38;;;22.65;nan
14343;BME280;7255;53.596;9.960;2023-08-21T10:31:28;102159.81;;;22.71;nan
14343;BME280;7255;53.596;9.960;2023-08-21T10:33:55;102149.97;;;22.70;nan
14343;BME280;7255;53.596;9.960;2023-08-21T10:36:40;102155.72;;;22.84;nan
14343;BME280;7255;53.596;9.960;2023-08-21T10:39:12;102166.97;;;23.03;nan
14343;BME280;7255;53.596;9.960;2023-08-21T10:41:39;102164.50;;;22.96;nan
14343;BME280;7255;53.596;9.960;2023-08-21T10:44:07;102158.47;;;22.99;nan
14343;BME280;7255;53.596;9.960;2023-08-21T10:46:51;102164.53;;;23.06;nan
14343;BME280;7255;53.596;9.960;2023-08-21T10:49:18;102165.59;;;23.31;nan
14343;BME280;7255;53.596;9.960;2023-08-21T10:51:44;102155.72;;;23.35;nan
14343;BME280;7255;53.596;9.960;2023-08-21T10:54:11;102159.56;;;23.44;nan
14343;BME280;7255;53.596;9.960;2023-08-21T10:56:39;102164.22;;;23.44;nan
14343;BME280;7255;53.596;9.960;2023-08-21T10:59:07;102167.25;;;23.37;nan
14343;BME280;7255;53.596;9.960;2023-08-21T11:01:43;102151.56;;;23.53;nan
14343;BME280;7255;53.596;9.960;2023-08-21T11:04:10;102163.88;;;23.61;nan
14343;BME280;7255;53.596;9.960;2023-08-21T11:06:37;102166.59;;;23.76;nan
14343;BME280;7255;53.596;9.960;2023-08-21T11:09:03;102157.56;;;23.71;nan
14343;BME280;7255;53.596;9.960;2023-08-21T11:11:30;102153.25;;;23.44;nan
14343;BME280;7255;53.596;9.960;2023-08-21T11:13:57;102157.91;;;23.54;nan
14343;BME280;7255;53.596;9.960;2023-08-21T11:16:25;102151.34;;;23.34;nan
14343;BME280;7255;53.596;9.960;2023-08-21T11:18:51;102163.94;;;23.51;nan
14343;BME280;7255;53.596;9.960;2023-08-21T11:21:18;102149.09;;;23.62;nan
14343;BME280;7255;53.596;9.960;2023-08-21T11:23:44;102152.63;;;23.68;nan
14343;BME280;7255;53.596;9.960;2023-08-21T11:26:11;102168.22;;;23.98;nan
14343;BME280;7255;53.596;9.960;2023-08-21T11:28:38;102156.75;;;23.80;nan
14343;BME280;7255;53.596;9.960;2023-08-21T11:31:06;102151.78;;;23.77;nan
14343;BME280;7255;53.596;9.960;2023-08-21T11:33:33;102167.69;;;23.91;nan
14343;BME280;7255;53.596;9.960;2023-08-21T11:36:04;102165.22;;;23.79;nan
14343;BME280;7255;53.596;9.960;2023-08-21T11:38:30;102163.34;;;23.69;nan
14343;BME280;7255;53.596;9.960;2023-08-21T11:40:58;102157.03;;;23.63;nan
14343;BME280;7255;53.596;9.960;2023-08-21T11:43:35;102158.41;;;23.61;nan
14343;BME280;7255;53.596;9.960;2023-08-21T11:46:02;102163.31;;;23.74;nan
14343;BME280;7255;53.596;9.960;2023-08-21T11:48:29;102165.53;;;23.72;nan
14343;BME280;7255;53.596;9.960;2023-08-21T11:50:56;102171.53;;;23.90;nan
14343;BME280;7255;53.596;9.960;2023-08-21T11:53:34;102161.34;;;24.00;nan
14343;BME280;7255;53.596;9.960;2023-08-21T11:56:00;102158.97;;;24.33;nan
14343;BME280;7255;53.596;9.960;2023-08-21T11:58:27;102155.28;;;24.58;nan
14343;BME280;7255;53.596;9.960;2023-08-21T12:00:53;102150.28;;;24.66;nan
14343;BME280;7255;53.596;9.960;2023-08-21T12:03:20;102160.94;;;24.72;nan
14343;BME280;7255;53.596;9.960;2023-08-21T12:05:46;102159.13;;;24.57;nan
14343;BME280;7255;53.596;9.960;2023-08-21T12:08:14;102157.25;;;24.53;nan
14343;BME280;7255;53.596;9.960;2023-08-21T12:10:40;102160.13;;;24.72;nan
14343;BME280;7255;53.596;9.960;2023-08-21T12:13:06;102150.38;;;24.90;nan
14343;BME280;7255;53.596;9.960;2023-08-21T12:15:33;102160.44;;;25.00;nan
14343;BME280;7255;53.596;9.960;2023-08-21T12:18:00;102155.94;;;25.14;nan
14343;BME280;7255;53.596;9.960;2023-08-21T12:20:26;102159.37;;;24.95;nan
14343;BME280;7255;53.596;9.960;2023-08-21T12:22:52;102158.41;;;24.81;nan
14343;BME280;7255;53.596;9.960;2023-08-21T12:25:20;102152.34;;;24.84;nan
14343;BME280;7255;53.596;9.960;2023-08-21T12:27:47;102157.25;;;24.87;nan
14343;BME280;7255;53.596;9.960;2023-08-21T12:30:13;102155.34;;;25.17;nan
14343;BME280;7255;53.596;9.960;2023-08-21T12:32:40;102157.94;;;25.38;nan
14343;BME280;7255;53.596;9.960;2023-08-21T12:35:07;102162.31;;;25.39;nan
14343;BME280;7255;53.596;9.960;2023-08-21T12:37:37;102157.03;;;25.42;nan
14343;BME280;7255;53.596;9.960;2023-08-21T12:40:04;102159.66;;;25.58;nan
14343;BME280;7255;53.596;9.960;2023-08-21T12:42:32;102151.44;;;25.77;nan
14343;BME280;7255;53.596;9.960;2023-08-21T12:44:58;102151.91;;;25.84;nan
14343;BME280;7255;53.596;9.960;2023-08-21T12:47:25;102161.06;;;26.03;nan
14343;BME280;7255;53.596;9.960;2023-08-21T12:49:51;102148.50;;;26.16;nan
14343;BME280;7255;53.596;9.960;2023-08-21T12:52:17;102145.91;;;26.25;nan
14343;BME280;7255;53.596;9.960;2023-08-21T12:54:43;102151.69;;;26.42;nan
14343;BME280;7255;53.596;9.960;2023-08-21T12:57:10;102155.97;;;26.35;nan
14343;BME280;7255;53.596;9.960;2023-08-21T12:59:38;102151.31;;;26.30;nan
14343;BME280;7255;53.596;9.960;2023-08-21T13:02:04;102142.69;;;26.56;nan
14343;BME280;7255;53.596;9.960;2023-08-21T13:04:30;102150.22;;;26.50;nan
14343;BME280;7255;53.596;9.960;2023-08-21T13:06:57;102152.91;;;26.36;nan
14343;BME280;7255;53.596;9.960;2023-08-21T13:09:23;102149.84;;;26.19;nan
14343;BME280;7255;53.596;9.960;2023-08-21T13:11:50;102152.37;;;26.53;nan
14343;BME280;7255;53.596;9.960;2023-08-21T13:14:17;102137.94;;;26.61;nan
14343;BME280;7255;53.596;9.960;2023-08-21T13:16:44;102141.34;;;26.53;nan
14343;BME280;7255;53.596;9.960;2023-08-21T13:19:11;102142.25;;;26.29;nan
14343;BME280;7255;53.596;9.960;2023-08-21T13:21:37;102135.31;;;26.51;nan